Terminal Aerodrome Forecast
Issued by NWS

Home | Current Version | Previous Version | Text Only | Print | Product List | Glossary On
Versions: 1 2 3 4 5 6 7 8 9 10 11 12 13
757
FTUS45 KRIW 041728
TAFCPR
TAF
KCPR 041728Z 0418/0518 22012G17KT P6SM FEW100
     FM050200 19008KT P6SM FEW100
     FM051000 22012KT P6SM SCT250
     FM051600 22014G20KT P6SM FEW110=

USA.gov is the U.S. government's official web portal to all federal, state and local government web resources and services.